Time;durP1;ratioP1;P1;durP2;ratioP2;P2;SDS_P1;SDS_P2;PMS_P1;PMS_P2;Temp;Humidity;BMP_temperature;BMP_pressure;BME280_temperature;BME280_humidity;BME280_pressure;Samples;Min_cycle;Max_cycle;Signal;HPM_P1;HPM_P2
2022/03/07 07:15:42;;;;;;;38.78;14.78;;;;;;;0.71;88.93;99036.44;1819480;76;22799;-80
2022/03/07 07:18:09;;;;;;;40.20;15.72;;;;;;;0.68;90.47;99032.16;1760862;80;21122;-80
2022/03/07 07:20:36;;;;;;;54.27;18.35;;;;;;;0.71;91.33;99028.77;1751791;81;20936;-81
2022/03/07 07:23:02;;;;;;;59.67;20.32;;;;;;;0.79;90.69;99036.12;1739389;78;21156;-81
2022/03/07 07:25:28;;;;;;;59.30;20.62;;;;;;;0.89;91.63;99032.83;1722297;83;21098;-81
2022/03/07 07:27:55;;;;;;;47.90;17.67;;;;;;;0.97;91.62;99035.50;1725833;81;21035;-81
2022/03/07 07:30:22;;;;;;;40.43;17.07;;;;;;;1.05;91.45;99030.47;1717627;82;21068;-82
2022/03/07 07:32:49;;;;;;;37.20;16.05;;;;;;;1.16;91.55;99038.72;1725958;79;21109;-82
2022/03/07 07:35:16;;;;;;;41.65;15.30;;;;;;;1.22;91.40;99034.53;1729779;79;21032;-83
2022/03/07 07:37:42;;;;;;;34.78;15.90;;;;;;;1.31;91.66;99032.94;1724218;82;20987;-83
2022/03/07 07:40:10;;;;;;;33.60;15.60;;;;;;;1.39;91.70;99030.42;1728061;82;21021;-83
2022/03/07 07:42:37;;;;;;;38.10;16.87;;;;;;;1.48;91.70;99027.13;1723601;81;21032;-83
2022/03/07 07:45:06;;;;;;;30.15;13.55;;;;;;;1.51;91.83;99028.02;1725432;82;20986;-82
2022/03/07 07:47:33;;;;;;;30.62;13.98;;;;;;;1.62;91.71;99027.27;1730786;79;20946;-83
2022/03/07 07:49:59;;;;;;;32.08;15.43;;;;;;;1.60;91.61;99027.23;1727545;79;21035;-84
2022/03/07 07:52:26;;;;;;;32.28;15.28;;;;;;;1.73;92.08;99019.23;1726024;80;21033;-87
2022/03/07 07:54:52;;;;;;;34.35;16.37;;;;;;;1.75;91.65;99031.23;1726285;78;21083;-87
2022/03/07 07:57:19;;;;;;;35.95;15.68;;;;;;;1.83;91.64;99021.45;1731608;78;21129;-86
2022/03/07 07:59:46;;;;;;;27.42;13.70;;;;;;;1.89;92.10;99030.08;1732169;81;21570;-83
2022/03/07 08:02:13;;;;;;;30.57;13.55;;;;;;;1.88;91.13;99027.50;1772579;80;21003;-85
2022/03/07 08:04:39;;;;;;;26.75;12.03;;;;;;;1.96;91.77;99022.01;1765593;80;21089;-87
2022/03/07 08:07:06;;;;;;;30.75;13.72;;;;;;;2.03;91.51;99030.20;1773019;79;21066;-84
2022/03/07 08:09:34;;;;;;;31.82;14.38;;;;;;;2.14;92.51;99025.99;1771675;79;21026;-83
2022/03/07 08:12:01;;;;;;;28.75;14.10;;;;;;;2.22;92.00;99025.20;1788818;78;21015;31
2022/03/07 08:14:28;;;;;;;30.35;13.50;;;;;;;2.25;91.22;99025.21;1692421;84;21080;-88
2022/03/07 08:16:54;;;;;;;30.95;14.85;;;;;;;2.28;90.66;99023.53;1690281;84;21028;-88
2022/03/07 08:19:21;;;;;;;27.93;14.85;;;;;;;2.31;90.48;99022.72;1675912;84;21109;-85
2022/03/07 08:21:47;;;;;;;27.67;13.43;;;;;;;2.38;89.98;99015.47;1695490;84;21045;-80
2022/03/07 08:24:14;;;;;;;25.90;12.10;;;;;;;2.43;89.53;99017.66;1682447;84;21048;-83
2022/03/07 08:26:40;;;;;;;23.60;11.10;;;;;;;2.46;88.50;99016.38;1690756;84;21042;-84
2022/03/07 08:29:07;;;;;;;24.52;11.75;;;;;;;2.50;88.03;99015.55;1692653;83;21016;-84
2022/03/07 08:31:33;;;;;;;26.80;11.95;;;;;;;2.56;88.42;99011.73;1687684;84;21026;-83
2022/03/07 08:34:00;;;;;;;23.98;10.60;;;;;;;2.64;88.85;99008.36;1729007;80;21092;-89
2022/03/07 08:36:27;;;;;;;22.98;12.30;;;;;;;2.75;88.93;99008.85;1769595;80;20976;-86
2022/03/07 08:38:53;;;;;;;20.90;10.55;;;;;;;2.73;88.05;99009.70;1774614;80;21034;-88
2022/03/07 08:41:20;;;;;;;21.27;10.88;;;;;;;2.85;88.53;99009.76;1761106;80;20998;-87
2022/03/07 08:43:48;;;;;;;19.40;9.43;;;;;;;2.94;88.83;99012.34;1769300;80;21058;-87
2022/03/07 08:46:15;;;;;;;22.42;11.03;;;;;;;2.95;87.19;99011.52;1775340;80;20989;-83
2022/03/07 08:48:41;;;;;;;24.60;11.68;;;;;;;2.90;87.04;99011.05;1758280;80;21010;-84
2022/03/07 08:51:08;;;;;;;23.22;12.63;;;;;;;2.99;87.33;99006.81;1767169;80;21213;-83
2022/03/07 08:53:34;;;;;;;21.97;11.35;;;;;;;3.04;87.27;99006.82;1770378;80;21022;-84
2022/03/07 08:56:01;;;;;;;19.02;10.20;;;;;;;2.97;86.99;99011.52;1772135;79;20979;-84
2022/03/07 08:58:27;;;;;;;19.23;10.25;;;;;;;2.95;87.22;99008.94;1769082;80;20990;-82
2022/03/07 09:00:53;;;;;;;17.62;8.93;;;;;;;3.06;87.40;99000.41;1734086;79;21141;-88
2022/03/07 09:03:20;;;;;;;18.90;9.13;;;;;;;3.03;86.32;99006.41;1707537;83;21436;-89
2022/03/07 09:05:47;;;;;;;17.35;9.38;;;;;;;3.14;85.93;99006.44;1699067;83;21031;-79
2022/03/07 09:08:14;;;;;;;16.82;9.38;;;;;;;3.06;85.69;98999.12;1696701;83;21727;-81
2022/03/07 09:10:40;;;;;;;19.87;9.85;;;;;;;3.10;85.91;99003.42;1707300;83;21019;-85
2022/03/07 09:13:07;;;;;;;22.77;10.43;;;;;;;3.13;86.41;99000.88;1703128;83;21023;-88
2022/03/07 09:15:34;;;;;;;18.02;9.53;;;;;;;3.21;86.79;98999.19;1684352;82;21036;-84
2022/03/07 09:18:01;;;;;;;18.17;9.23;;;;;;;3.28;86.66;99002.63;1672350;82;21032;-84
2022/03/07 09:20:28;;;;;;;16.70;8.58;;;;;;;3.33;86.43;98997.94;1671014;81;21256;-87
2022/03/07 09:22:55;;;;;;;17.52;9.33;;;;;;;3.42;86.50;98993.66;1712660;81;21011;-84
2022/03/07 09:25:22;;;;;;;17.32;9.60;;;;;;;3.49;86.34;98998.83;1744345;81;20963;-85
2022/03/07 09:27:49;;;;;;;18.82;9.33;;;;;;;3.49;85.76;98994.97;1737915;80;21268;-90
2022/03/07 09:30:16;;;;;;;17.15;8.35;;;;;;;3.55;85.73;98990.27;1741751;79;21493;-88
2022/03/07 09:32:43;;;;;;;14.78;7.97;;;;;;;3.50;85.05;98987.70;1770307;80;21104;-87
2022/03/07 09:35:10;;;;;;;13.78;7.83;;;;;;;3.44;85.25;98986.81;1767793;80;21338;-90
2022/03/07 09:37:36;;;;;;;15.32;8.50;;;;;;;3.50;84.83;98986.82;1736214;79;21134;-91
2022/03/07 09:40:06;;;;;;;12.88;6.85;;;;;;;3.53;85.35;98984.27;1735830;82;21696;-90
2022/03/07 09:42:33;;;;;;;11.88;6.75;;;;;;;3.38;85.15;98988.53;1735841;79;21063;-87
2022/03/07 09:44:59;;;;;;;14.40;7.17;;;;;;;3.51;85.36;98988.12;1730300;82;21097;-89
2022/03/07 09:47:27;;;;;;;11.65;6.78;;;;;;;3.44;85.55;98980.39;1730260;82;21342;-89
2022/03/07 09:49:54;;;;;;;15.03;8.08;;;;;;;3.55;85.67;98987.70;1695702;81;21108;-83
2022/03/07 09:52:21;;;;;;;14.13;6.97;;;;;;;3.57;85.90;98984.27;1758527;79;21398;-89
2022/03/07 09:54:47;;;;;;;11.18;6.75;;;;;;;3.70;85.56;98985.16;1748599;81;21050;-87
2022/03/07 09:57:14;;;;;;;11.93;7.40;;;;;;;3.77;84.98;98988.14;1757190;80;20946;-91
2022/03/07 09:59:40;;;;;;;10.48;6.70;;;;;;;3.79;84.67;98981.28;1758121;80;21083;-93
2022/03/07 10:02:12;;;;;;;10.90;6.35;;;;;;;3.70;84.36;98985.16;1757590;81;21057;-89
2022/03/07 10:04:44;;;;;;;11.25;6.67;;;;;;;3.69;84.39;98984.70;1765915;79;21055;-89
2022/03/07 10:07:13;;;;;;;9.60;5.15;;;;;;;3.72;84.78;98982.56;1769998;79;21190;-88
2022/03/07 10:09:41;;;;;;;8.88;5.35;;;;;;;3.74;84.17;98984.70;1762581;78;20999;-91
2022/03/07 10:12:09;;;;;;;11.28;6.00;;;;;;;3.77;84.25;98984.72;1719074;82;21063;-89
2022/03/07 10:14:44;;;;;;;9.83;5.25;;;;;;;3.78;83.88;98982.16;1730160;82;21033;-86
2022/03/07 10:17:26;;;;;;;9.13;5.40;;;;;;;3.77;83.68;98977.86;1725271;82;21115;-84
2022/03/07 10:19:56;;;;;;;8.98;4.80;;;;;;;3.91;84.49;98983.00;1726943;82;21594;-83
2022/03/07 10:22:26;;;;;;;8.83;5.10;;;;;;;4.01;84.41;98980.00;1726478;82;21017;-85
2022/03/07 10:25:01;;;;;;;10.65;5.62;;;;;;;3.89;83.91;98979.58;1694919;84;21024;-90
2022/03/07 10:27:34;;;;;;;11.75;8.05;;;;;;;3.91;84.10;98976.57;1696569;79;21224;-86
2022/03/07 10:30:02;;;;;;;9.35;5.70;;;;;;;3.98;83.92;98971.02;1705018;83;21019;-85
2022/03/07 10:32:28;;;;;;;9.78;5.92;;;;;;;3.85;83.71;98968.02;1709577;82;21036;-83
2022/03/07 10:34:55;;;;;;;10.98;6.20;;;;;;;3.81;83.04;98967.58;1714095;83;21043;-83
2022/03/07 10:37:38;;;;;;;11.12;6.10;;;;;;;3.74;82.92;98967.59;1710308;83;20964;-83
2022/03/07 10:40:21;;;;;;;8.43;5.00;;;;;;;3.72;83.06;98964.16;1700501;83;21075;-80
2022/03/07 10:42:53;;;;;;;8.90;5.10;;;;;;;3.59;83.61;98963.27;1700961;83;20994;-84
2022/03/07 10:45:21;;;;;;;10.23;5.10;;;;;;;3.48;83.59;98958.57;1724178;82;21034;-84
2022/03/07 10:47:55;;;;;;;9.48;5.45;;;;;;;3.46;83.83;98959.00;1698736;82;21066;-83
2022/03/07 10:50:27;;;;;;;9.88;5.37;;;;;;;3.45;83.94;98962.41;1708370;83;21047;-83
2022/03/07 10:53:00;;;;;;;9.40;5.40;;;;;;;3.32;84.18;98949.98;1711907;81;21073;-85
2022/03/07 10:55:30;;;;;;;14.38;6.75;;;;;;;3.36;84.04;98948.25;1717548;83;21031;-85
2022/03/07 10:58:11;;;;;;;10.05;6.15;;;;;;;3.23;84.25;98947.81;1708726;81;21094;-86
2022/03/07 11:01:01;;;;;;;12.20;6.50;;;;;;;3.17;84.56;98947.38;1716983;81;21043;-86
2022/03/07 11:03:33;;;;;;;8.70;5.28;;;;;;;3.16;84.13;98941.79;1746848;82;21072;-83
2022/03/07 11:06:01;;;;;;;10.88;6.80;;;;;;;3.05;84.39;98943.49;1734754;82;21029;-87
2022/03/07 11:08:29;;;;;;;12.15;6.03;;;;;;;2.99;84.20;98933.63;1710997;82;21032;-82
2022/03/07 11:10:59;;;;;;;10.78;6.10;;;;;;;2.91;83.57;98928.89;1718771;82;21595;-82
2022/03/07 11:13:29;;;;;;;13.65;5.75;;;;;;;2.83;84.15;98921.59;1713415;82;21009;-81
2022/03/07 11:16:03;;;;;;;11.03;6.03;;;;;;;2.89;83.96;98921.61;1708548;82;21032;-80
2022/03/07 11:18:31;;;;;;;10.25;5.67;;;;;;;2.79;85.13;98922.44;1675022;84;21508;-82
2022/03/07 11:21:02;;;;;;;13.38;6.25;;;;;;;2.74;84.78;98915.98;1675230;84;21080;-85
2022/03/07 11:23:29;;;;;;;13.93;6.90;;;;;;;2.79;84.85;98914.73;1677863;84;21445;-82
2022/03/07 11:25:58;;;;;;;14.40;7.53;;;;;;;2.78;84.75;98916.86;1684053;84;21037;-83
2022/03/07 11:28:29;;;;;;;12.58;6.80;;;;;;;2.85;84.41;98908.34;1679871;84;21008;-79
2022/03/07 11:30:56;;;;;;;13.03;5.95;;;;;;;2.80;84.20;98902.31;1707073;82;21514;-79
2022/03/07 11:33:33;;;;;;;11.97;6.65;;;;;;;2.81;84.16;98900.20;1715096;82;21075;-84
2022/03/07 11:35:56;;;;;;;11.33;5.58;;;;;;;2.77;84.01;98897.19;1708278;82;21332;-79
2022/03/07 11:38:28;;;;;;;15.32;6.20;;;;;;;2.75;83.87;98898.46;1706786;83;21018;-83
2022/03/07 11:41:10;;;;;;;11.88;6.37;;;;;;;2.76;83.78;98891.61;1713490;81;21063;-85
2022/03/07 11:43:53;;;;;;;11.68;6.08;;;;;;;2.72;84.45;98889.45;1688650;82;20989;-86
2022/03/07 11:46:29;;;;;;;11.70;5.87;;;;;;;2.65;84.57;98876.62;1743150;79;21158;-86
2022/03/07 11:48:56;;;;;;;12.55;5.53;;;;;;;2.77;84.28;98880.06;1746331;81;21008;-85
2022/03/07 11:51:33;;;;;;;12.78;6.87;;;;;;;2.87;85.14;98879.67;1746019;81;21035;-87
2022/03/07 11:56:36;;;;;;;16.00;7.50;;;;;;;2.92;84.82;98888.22;1616340;88;21186;-90
2022/03/07 11:59:06;;;;;;;11.90;6.35;;;;;;;2.83;84.44;98885.65;1707504;82;21551;-89
2022/03/07 12:01:33;;;;;;;12.35;6.65;;;;;;;2.84;84.42;98877.52;1744975;80;21508;-89
2022/03/07 12:04:14;;;;;;;11.43;6.55;;;;;;;2.86;84.46;98879.22;1685911;83;21028;-88
2022/03/07 12:06:50;;;;;;;9.53;5.45;;;;;;;2.84;84.04;98874.51;1692221;82;21056;-86
2022/03/07 12:12:16;;;;;;;12.43;6.03;;;;;;;2.81;83.51;98868.10;1618153;80;21106;-85
2022/03/07 12:14:45;;;;;;;10.80;5.87;;;;;;;2.74;84.19;98859.94;1733835;82;21456;-88
2022/03/07 12:17:23;;;;;;;13.70;6.45;;;;;;;2.76;84.16;98859.08;1730175;80;21003;-85
2022/03/07 12:19:56;;;;;;;14.80;6.50;;;;;;;2.81;83.89;98855.27;1729533;79;21144;-89
2022/03/07 12:22:30;;;;;;;12.90;6.67;;;;;;;2.74;84.24;98849.23;1684592;83;21119;-88
2022/03/07 12:25:06;;;;;;;14.73;7.22;;;;;;;2.74;84.24;98849.23;1723265;78;21258;-88
2022/03/07 12:27:37;;;;;;;11.57;6.53;;;;;;;2.75;84.59;98853.97;1699919;82;21031;-84
2022/03/07 12:30:01;;;;;;;12.88;7.05;;;;;;;2.77;83.90;98853.11;1709397;80;21035;-86
2022/03/07 12:32:28;;;;;;;13.78;7.83;;;;;;;2.71;84.05;98846.68;1751074;79;21122;-89
2022/03/07 12:34:54;;;;;;;13.05;6.65;;;;;;;2.71;84.29;98849.69;1765959;80;20983;-87
2022/03/07 12:37:22;;;;;;;13.48;5.97;;;;;;;2.72;82.81;98848.38;1774153;80;21014;-87
2022/03/07 12:39:59;;;;;;;11.22;5.37;;;;;;;2.69;82.76;98851.39;1655570;80;21143;-89
2022/03/07 12:42:31;;;;;;;13.68;6.70;;;;;;;2.65;83.42;98854.37;1649973;81;21140;-89
2022/03/07 12:45:00;;;;;;;13.65;6.17;;;;;;;2.63;82.95;98848.38;1727437;80;21123;-86
2022/03/07 12:47:30;;;;;;;12.68;6.37;;;;;;;2.62;82.72;98854.78;1739453;79;21008;-84
2022/03/07 12:49:59;;;;;;;12.98;7.22;;;;;;;2.62;83.57;98854.34;1738480;81;21009;-82
2022/03/07 12:52:33;;;;;;;11.78;6.72;;;;;;;2.59;83.15;98849.22;1732472;82;21531;-83
2022/03/07 12:55:03;;;;;;;12.95;7.25;;;;;;;2.59;83.36;98842.80;1732167;82;21068;-84
2022/03/07 12:57:30;;;;;;;12.78;6.87;;;;;;;2.54;83.02;98849.62;1666330;82;20968;-85
2022/03/07 13:00:10;;;;;;;13.60;7.17;;;;;;;2.53;82.60;98850.05;1750178;80;20977;-84
2022/03/07 13:02:41;;;;;;;13.85;7.42;;;;;;;2.44;83.71;98845.31;1753434;80;21145;-89
2022/03/07 13:05:14;;;;;;;13.28;6.67;;;;;;;2.51;82.27;98840.20;1704494;80;21121;-89
2022/03/07 13:07:58;;;;;;;15.38;7.00;;;;;;;2.47;82.66;98846.19;1711148;82;21108;-87
2022/03/07 13:10:25;;;;;;;12.55;6.58;;;;;;;2.46;83.51;98845.73;1716886;81;21115;-84
2022/03/07 13:13:04;;;;;;;15.55;6.87;;;;;;;2.46;83.25;98852.59;1739076;80;21085;-86
2022/03/07 13:15:42;;;;;;;16.45;7.60;;;;;;;2.43;83.02;98843.18;1766037;79;21020;-84
2022/03/07 13:18:10;;;;;;;17.50;8.70;;;;;;;2.35;83.10;98843.58;1762532;79;21071;-87
2022/03/07 13:20:37;;;;;;;17.15;8.03;;;;;;;2.33;82.63;98840.16;1718307;79;21059;-87
2022/03/07 13:23:06;;;;;;;15.55;8.28;;;;;;;2.29;83.29;98852.50;1664401;81;21603;-85
2022/03/07 13:25:42;;;;;;;18.95;8.88;;;;;;;2.30;82.41;98839.69;1667934;86;21097;-83
2022/03/07 13:28:09;;;;;;;19.57;9.88;;;;;;;2.26;84.01;98849.95;1697939;83;20989;-85
2022/03/07 13:30:37;;;;;;;21.57;10.43;;;;;;;2.15;85.11;98840.94;1701150;83;21026;-84
2022/03/07 13:33:07;;;;;;;24.52;9.60;;;;;;;2.18;84.69;98849.47;1689101;81;21015;-84
2022/03/07 13:35:38;;;;;;;23.98;11.40;;;;;;;2.21;84.27;98851.62;1709116;80;21418;-86
2022/03/07 13:38:04;;;;;;;20.57;9.58;;;;;;;2.15;85.28;98844.34;1708664;84;21097;-85
2022/03/07 13:40:36;;;;;;;21.75;10.75;;;;;;;2.15;85.44;98846.91;1711976;82;21000;-83
2022/03/07 13:43:04;;;;;;;21.30;10.03;;;;;;;2.13;85.52;98843.48;1730201;80;21105;-84
2022/03/07 13:45:34;;;;;;;20.97;10.70;;;;;;;2.12;85.71;98846.88;1767463;80;21030;-83
2022/03/07 13:48:04;;;;;;;23.83;11.93;;;;;;;2.11;86.54;98851.59;1759794;81;21005;-86
2022/03/07 13:50:31;;;;;;;27.52;12.90;;;;;;;2.15;85.50;98846.06;1735459;80;21048;-85
2022/03/07 13:53:13;;;;;;;26.50;13.10;;;;;;;2.12;86.38;98850.73;1720785;80;21651;-89
2022/03/07 13:55:46;;;;;;;26.27;12.43;;;;;;;2.14;86.00;98845.61;1727552;81;21024;-88
2022/03/07 13:58:21;;;;;;;28.12;13.60;;;;;;;2.04;86.35;98852.40;1736484;81;21024;-83
2022/03/07 14:00:48;;;;;;;23.38;11.63;;;;;;;1.97;86.05;98848.11;1731744;81;21031;-83
2022/03/07 14:03:15;;;;;;;21.68;9.65;;;;;;;1.81;87.09;98853.57;1738202;80;21334;-83
2022/03/07 14:05:51;;;;;;;26.20;11.65;;;;;;;1.79;85.90;98864.20;1736282;81;21039;-85
2022/03/07 14:08:33;;;;;;;24.77;11.03;;;;;;;1.77;85.56;98855.65;1723246;80;20968;-85
2022/03/07 14:11:04;;;;;;;24.32;11.93;;;;;;;1.61;87.52;98862.38;1725668;81;21009;-85
2022/03/07 14:13:43;;;;;;;29.18;14.20;;;;;;;1.43;88.66;98857.98;1716804;81;21033;-84
2022/03/07 14:16:11;;;;;;;32.60;14.45;;;;;;;1.38;89.00;98859.66;1727725;81;21428;-86
2022/03/07 14:18:38;;;;;;;28.62;14.50;;;;;;;1.32;88.81;98860.89;1720489;82;21862;-86
2022/03/07 14:21:05;;;;;;;33.10;13.20;;;;;;;1.15;90.27;98862.90;1711611;80;21072;-88
2022/03/07 14:23:32;;;;;;;28.70;13.55;;;;;;;1.00;91.08;98857.63;1724576;82;21000;-84
2022/03/07 14:25:58;;;;;;;32.73;13.03;;;;;;;0.97;91.21;98858.43;1730174;82;21016;-80
2022/03/07 14:28:25;;;;;;;29.95;14.65;;;;;;;0.97;90.45;98862.27;1724228;83;21037;-80
2022/03/07 14:30:52;;;;;;;34.20;14.30;;;;;;;0.96;90.14;98862.28;1733056;82;21503;-79
2022/03/07 14:33:19;;;;;;;29.37;13.25;;;;;;;0.96;90.77;98866.97;1729319;83;21036;-80
2022/03/07 14:35:45;;;;;;;30.08;12.65;;;;;;;0.96;90.76;98863.56;1734369;82;21018;-83
2022/03/07 14:38:12;;;;;;;32.85;14.63;;;;;;;0.97;90.04;98862.70;1731397;81;21000;-84
2022/03/07 14:40:39;;;;;;;33.20;14.35;;;;;;;0.97;91.14;98857.58;1720537;83;21012;-83
2022/03/07 14:43:06;;;;;;;31.93;13.68;;;;;;;0.98;90.81;98860.16;1690004;80;21186;-85
2022/03/07 14:45:33;;;;;;;32.33;13.98;;;;;;;0.98;90.56;98863.16;1709283;79;21059;-85
2022/03/07 14:48:00;;;;;;;29.00;14.28;;;;;;;1.04;89.16;98855.96;1723551;83;21058;-86
2022/03/07 14:50:27;;;;;;;33.45;14.45;;;;;;;0.98;90.28;98865.28;1695645;83;21068;-84
2022/03/07 14:52:53;;;;;;;33.70;15.95;;;;;;;0.97;90.87;98863.55;1729590;82;21103;-85
2022/03/07 14:55:23;;;;;;;37.88;15.43;;;;;;;0.99;90.42;98858.05;1763107;80;21044;-81
2022/03/07 14:57:51;;;;;;;37.65;16.35;;;;;;;1.04;90.46;98863.64;1732912;80;21136;-86
2022/03/07 15:00:22;;;;;;;41.35;19.00;;;;;;;1.06;90.38;98869.20;1727355;81;21063;-86
2022/03/07 15:02:49;;;;;;;26.77;13.83;;;;;;;1.06;90.71;98867.92;1719880;79;21159;-82
2022/03/07 15:05:17;;;;;;;34.13;16.60;;;;;;;1.04;90.77;98865.77;1712781;81;21088;-88
2022/03/07 15:07:44;;;;;;;34.48;14.73;;;;;;;1.02;90.82;98862.77;1729026;80;21135;-85
2022/03/07 15:10:11;;;;;;;27.95;14.33;;;;;;;0.99;90.96;98869.58;1736300;82;20984;-82
2022/03/07 15:12:38;;;;;;;26.07;12.60;;;;;;;0.92;91.41;98871.63;1700214;83;21018;-80
2022/03/07 15:15:06;;;;;;;26.48;12.25;;;;;;;0.93;90.45;98870.77;1721545;82;21471;-80
2022/03/07 15:17:33;;;;;;;22.62;10.30;;;;;;;0.90;91.56;98880.14;1721960;83;21559;-77
2022/03/07 15:19:59;;;;;;;21.77;10.53;;;;;;;0.85;91.56;98881.35;1726516;80;21008;-81
2022/03/07 15:22:26;;;;;;;24.00;10.00;;;;;;;0.83;91.13;98883.04;1695879;78;21051;-82
2022/03/07 15:24:54;;;;;;;21.10;10.45;;;;;;;0.82;90.86;98880.06;1673347;82;21049;-81
2022/03/07 15:30:09;;;;;;;25.05;9.98;;;;;;;0.87;90.90;98876.25;1771346;79;21075;-78
2022/03/07 15:32:51;;;;;;;29.60;12.35;;;;;;;0.90;90.01;98879.72;1761411;78;21117;31
2022/03/07 15:35:17;;;;;;;35.08;13.08;;;;;;;0.93;90.51;98882.72;1686699;84;21514;-82
2022/03/07 15:37:44;;;;;;;25.57;11.87;;;;;;;0.98;89.63;98883.63;1706495;84;21049;-84
2022/03/07 15:40:12;;;;;;;45.48;17.30;;;;;;;0.99;88.97;98881.09;1703647;83;20993;-81
2022/03/07 15:42:39;;;;;;;46.48;19.90;;;;;;;0.99;89.10;98898.13;1690360;84;21526;-83
2022/03/07 15:45:07;;;;;;;32.98;15.18;;;;;;;0.99;89.21;98900.70;1695802;84;21017;-86
2022/03/07 15:47:34;;;;;;;32.78;15.18;;;;;;;1.02;89.35;98898.61;1697886;79;21048;-89
2022/03/07 15:50:01;;;;;;;30.70;13.68;;;;;;;1.03;89.32;98897.32;1728340;80;21153;-89
2022/03/07 15:52:30;;;;;;;26.93;12.00;;;;;;;1.04;89.09;98903.33;1717130;82;21032;-86
2022/03/07 15:54:56;;;;;;;29.37;12.95;;;;;;;1.02;89.67;98906.29;1688030;80;21091;-81
2022/03/07 15:57:24;;;;;;;28.15;13.83;;;;;;;1.03;88.77;98913.95;1725447;83;21020;-80
2022/03/07 15:59:50;;;;;;;31.23;13.85;;;;;;;1.03;88.06;98911.83;1729639;83;21012;-82
2022/03/07 16:02:17;;;;;;;32.00;14.50;;;;;;;0.99;89.10;98910.94;1713193;79;21118;-82
2022/03/07 16:04:43;;;;;;;33.23;14.47;;;;;;;0.99;88.81;98916.05;1701966;84;21062;-85
2022/03/07 16:07:11;;;;;;;30.55;13.95;;;;;;;1.01;89.16;98919.48;1744006;81;21035;-85
2022/03/07 16:09:39;;;;;;;30.02;13.80;;;;;;;0.88;90.09;98904.44;1723097;83;21143;-79
2022/03/07 16:12:06;;;;;;;31.80;13.80;;;;;;;1.06;89.65;98924.25;1724566;79;21189;-78
2022/03/07 16:14:33;;;;;;;39.33;14.47;;;;;;;1.10;89.89;98931.55;1724479;82;21023;-81
2022/03/07 16:16:59;;;;;;;32.33;14.20;;;;;;;1.14;90.31;98917.92;1709513;82;21051;-80
2022/03/07 16:19:26;;;;;;;35.15;13.83;;;;;;;1.19;90.12;98914.97;1695336;81;21030;-80
2022/03/07 16:21:53;;;;;;;39.27;15.35;;;;;;;1.18;89.76;98926.92;1730882;81;21225;-79
2022/03/07 16:24:22;;;;;;;44.93;19.57;;;;;;;1.22;89.76;98923.98;1705986;83;21574;-83
2022/03/07 16:26:48;;;;;;;48.23;20.35;;;;;;;1.28;89.69;98934.28;1723180;80;20983;-85
2022/03/07 16:29:15;;;;;;;45.15;19.15;;;;;;;1.30;89.84;98930.03;1731585;79;21066;-86
2022/03/07 16:31:41;;;;;;;45.92;19.52;;;;;;;1.34;90.07;98929.21;1733421;78;21092;-90
2022/03/07 16:34:08;;;;;;;40.80;17.50;;;;;;;1.36;90.05;98933.92;1762572;80;21063;-90
2022/03/07 16:36:34;;;;;;;47.80;20.60;;;;;;;1.38;89.92;98930.11;1761958;80;21014;-87
2022/03/07 16:39:02;;;;;;;43.33;19.17;;;;;;;1.40;89.92;98936.09;1763606;80;21035;-91
2022/03/07 16:41:29;;;;;;;33.63;16.12;;;;;;;1.39;89.68;98938.20;1700595;78;21103;-89
2022/03/07 16:43:55;;;;;;;34.92;16.82;;;;;;;1.40;89.61;98942.50;1663717;84;21006;-88
2022/03/07 16:46:22;;;;;;;42.13;19.82;;;;;;;1.39;89.61;98940.77;1671603;85;21040;-85
2022/03/07 16:48:49;;;;;;;40.33;19.00;;;;;;;1.39;89.45;98949.34;1681242;85;21024;-85
2022/03/07 16:51:16;;;;;;;42.35;19.40;;;;;;;1.38;89.21;98946.75;1679780;84;21028;-86
2022/03/07 16:53:46;;;;;;;38.50;17.70;;;;;;;1.38;88.80;98949.31;1663195;84;21013;-87
2022/03/07 16:56:11;;;;;;;33.73;15.78;;;;;;;1.35;88.50;98956.95;1681702;84;21021;-88
2022/03/07 16:58:37;;;;;;;29.27;14.75;;;;;;;1.29;88.44;98960.31;1668125;84;20993;-86
2022/03/07 17:01:04;;;;;;;37.50;16.77;;;;;;;1.22;87.99;98956.42;1672970;83;21571;-84
2022/03/07 17:03:30;;;;;;;31.15;13.58;;;;;;;1.22;88.59;98958.55;1682353;85;21020;-85
2022/03/07 17:05:56;;;;;;;34.67;15.72;;;;;;;1.27;88.90;98966.27;1675956;85;20996;-87
2022/03/07 17:08:23;;;;;;;36.63;16.25;;;;;;;1.31;89.19;98969.30;1669434;85;21002;-88
2022/03/07 17:10:50;;;;;;;38.05;17.00;;;;;;;1.34;88.48;98969.34;1665068;84;21082;-89
2022/03/07 17:13:16;;;;;;;38.67;16.93;;;;;;;1.30;87.88;98974.85;1638469;87;21111;-87
2022/03/07 17:15:42;;;;;;;40.38;18.77;;;;;;;1.28;88.46;98970.13;1635851;86;21047;-88
2022/03/07 17:18:09;;;;;;;43.02;18.17;;;;;;;1.29;88.64;98965.44;1632326;86;21007;-89
2022/03/07 17:20:36;;;;;;;41.08;16.57;;;;;;;1.22;88.34;98967.95;1690502;79;21083;-87
2022/03/07 17:23:02;;;;;;;42.62;17.07;;;;;;;1.13;88.39;98972.09;1761147;80;21000;-84
2022/03/07 17:25:29;;;;;;;38.73;15.93;;;;;;;1.04;88.73;98973.30;1760007;80;21125;-82
2022/03/07 17:27:56;;;;;;;47.58;18.92;;;;;;;1.06;87.74;98980.58;1763667;80;21976;-84
2022/03/07 17:30:23;;;;;;;42.10;19.48;;;;;;;0.98;88.20;98977.92;1761011;80;21090;-82
2022/03/07 17:32:51;;;;;;;44.20;18.40;;;;;;;0.98;87.86;98980.48;1760811;81;21027;-85
2022/03/07 17:35:17;;;;;;;45.35;20.17;;;;;;;0.97;88.29;98988.14;1760705;80;21152;-79
2022/03/07 17:37:44;;;;;;;34.70;15.93;;;;;;;0.97;88.49;98988.98;1772590;80;21003;-86
2022/03/07 17:40:11;;;;;;;38.55;17.37;;;;;;;0.98;88.02;98994.56;1768209;80;21511;-84
2022/03/07 17:42:38;;;;;;;37.17;14.60;;;;;;;0.97;87.81;98994.11;1688963;80;21099;-85
2022/03/07 17:45:08;;;;;;;37.25;16.23;;;;;;;1.01;89.11;98993.73;1688212;82;21131;-84
2022/03/07 17:47:34;;;;;;;38.80;16.40;;;;;;;1.05;88.91;98994.63;1692121;84;21543;-86
2022/03/07 17:50:01;;;;;;;38.78;19.20;;;;;;;1.05;88.51;98999.32;1698533;82;21052;-88
2022/03/07 17:52:27;;;;;;;41.35;18.62;;;;;;;1.02;88.61;99003.14;1691793;83;21055;-88
2022/03/07 17:54:54;;;;;;;36.28;17.55;;;;;;;0.99;89.41;98998.86;1711111;82;21037;-86
2022/03/07 17:57:21;;;;;;;34.75;17.07;;;;;;;1.03;89.40;98995.88;1709445;82;21023;-89
2022/03/07 17:59:47;;;;;;;41.08;15.58;;;;;;;1.02;89.21;99003.14;1691745;83;20973;-87
2022/03/07 18:02:14;;;;;;;32.73;13.68;;;;;;;1.01;89.28;99006.53;1697887;84;21604;-84
2022/03/07 18:04:40;;;;;;;35.63;14.50;;;;;;;1.02;89.32;99012.10;1697153;83;21004;-82
2022/03/07 18:07:07;;;;;;;31.12;13.30;;;;;;;0.97;88.55;99011.17;1699075;84;21015;-83
2022/03/07 18:09:33;;;;;;;22.87;12.00;;;;;;;0.91;88.37;99010.67;1689001;84;21116;-80
2022/03/07 18:12:02;;;;;;;26.43;11.33;;;;;;;0.89;88.38;99008.52;1693661;84;21436;-81
2022/03/07 18:14:29;;;;;;;24.85;11.93;;;;;;;0.85;88.47;99013.16;1759430;78;21170;-82
2022/03/07 18:17:10;;;;;;;29.30;12.50;;;;;;;0.81;88.42;99012.69;1751425;79;21170;-80
2022/03/07 18:19:37;;;;;;;31.48;13.83;;;;;;;0.79;89.14;99020.34;1692173;79;21146;-82
2022/03/07 18:22:06;;;;;;;35.65;14.20;;;;;;;0.79;88.63;99020.77;1659947;86;21037;-85
2022/03/07 18:24:35;;;;;;;38.25;15.70;;;;;;;0.80;88.62;99022.50;1748507;79;21031;-87
2022/03/07 18:27:04;;;;;;;34.45;15.28;;;;;;;0.80;88.69;99022.50;1762393;80;21276;-84
2022/03/07 18:29:31;;;;;;;33.15;16.02;;;;;;;0.79;88.65;99024.60;1725358;80;21713;-88
2022/03/07 18:31:57;;;;;;;36.48;13.90;;;;;;;0.74;88.33;99028.39;1738514;82;20988;-87
2022/03/07 18:34:24;;;;;;;38.55;15.08;;;;;;;0.71;88.33;99026.20;1734900;82;21055;-81
2022/03/07 18:36:51;;;;;;;37.95;13.25;;;;;;;0.68;88.29;99023.20;1730932;79;21011;-80
2022/03/07 18:39:18;;;;;;;36.45;14.28;;;;;;;0.65;88.15;99030.81;1746825;77;21067;-81
2022/03/07 18:41:44;;;;;;;29.72;13.18;;;;;;;0.67;88.10;99028.28;1781699;77;21455;-81
2022/03/07 18:44:11;;;;;;;30.57;13.88;;;;;;;0.66;88.05;99026.16;1764220;80;21055;-80
2022/03/07 18:46:38;;;;;;;34.38;14.20;;;;;;;0.72;88.48;99027.94;1788638;80;20975;-81
2022/03/07 18:49:04;;;;;;;35.45;15.18;;;;;;;0.77;88.52;99033.96;1773150;77;21024;-82
2022/03/07 18:51:31;;;;;;;41.90;19.23;;;;;;;0.79;88.16;99027.16;1800014;79;21050;-88
2022/03/07 18:53:58;;;;;;;38.70;17.27;;;;;;;0.78;88.08;99033.98;1771406;80;21034;-90
2022/03/07 18:56:26;;;;;;;39.58;16.50;;;;;;;0.73;87.79;99034.77;1682076;77;21192;-89
2022/03/07 18:58:53;;;;;;;42.25;17.82;;;;;;;0.69;87.50;99044.52;1763775;78;21027;-89